createdAt,value
2023-02-18T00:01:01.288Z,46.67
2023-02-18T00:03:29.020Z,46.61
2023-02-18T00:05:55.656Z,46.46
2023-02-18T00:08:23.142Z,46.95
2023-02-18T00:10:49.774Z,46.87
2023-02-18T00:13:16.266Z,46.88
2023-02-18T00:15:42.907Z,46.63
2023-02-18T00:18:09.602Z,47.01
2023-02-18T00:20:39.402Z,47.24
2023-02-18T00:23:05.938Z,46.90
2023-02-18T00:25:32.405Z,47.03
2023-02-18T00:27:58.871Z,46.77
2023-02-18T00:30:25.398Z,46.59
2023-02-18T00:32:51.866Z,47.10
2023-02-18T00:35:18.348Z,46.72
2023-02-18T00:37:44.804Z,46.79
2023-02-18T00:40:11.615Z,46.88
2023-02-18T00:42:38.051Z,47.57
2023-02-18T00:45:04.832Z,46.87
2023-02-18T00:47:31.253Z,47.60
2023-02-18T00:49:57.683Z,47.10
2023-02-18T00:52:24.126Z,46.82
2023-02-18T00:54:50.595Z,46.90
2023-02-18T00:57:17.060Z,47.29
2023-02-18T00:59:43.639Z,46.92
2023-02-18T01:02:10.075Z,47.22
2023-02-18T01:04:36.563Z,46.87
2023-02-18T01:07:03.085Z,47.17
2023-02-18T01:09:29.523Z,47.04
2023-02-18T01:11:56.137Z,47.05
2023-02-18T01:14:22.607Z,47.35
2023-02-18T01:16:49.125Z,47.62
2023-02-18T01:19:15.608Z,47.26
2023-02-18T01:21:42.044Z,47.55
2023-02-18T01:24:08.498Z,47.62
2023-02-18T01:26:34.935Z,47.78
2023-02-18T01:29:01.442Z,48.02
2023-02-18T01:31:28.019Z,48.06
2023-02-18T01:33:54.583Z,48.28
2023-02-18T01:36:21.045Z,48.20
2023-02-18T01:38:47.478Z,48.16
2023-02-18T01:41:14.026Z,48.77
2023-02-18T01:43:40.501Z,48.71
2023-02-18T01:46:16.913Z,48.83
2023-02-18T01:49:03.761Z,48.91
2023-02-18T01:51:34.259Z,48.98
2023-02-18T01:54:13.375Z,49.20
2023-02-18T01:56:45.405Z,49.10
2023-02-18T01:59:16.542Z,49.39
2023-02-18T02:01:45.782Z,49.16
2023-02-18T02:04:12.708Z,49.23
2023-02-18T02:06:39.283Z,49.34
2023-02-18T02:09:09.682Z,49.44
2023-02-18T02:11:52.439Z,49.21
2023-02-18T02:14:27.767Z,49.35
2023-02-18T02:17:03.316Z,49.49
2023-02-18T02:20:16.339Z,49.66
2023-02-18T02:23:04.365Z,49.74
2023-02-18T02:25:45.811Z,49.98
2023-02-18T02:28:36.847Z,49.99
2023-02-18T02:31:24.381Z,50.37
2023-02-18T02:34:06.070Z,50.33
2023-02-18T02:36:38.280Z,50.89
2023-02-18T02:39:21.699Z,51.17
2023-02-18T02:42:16.048Z,51.22
2023-02-18T02:44:57.081Z,51.57
2023-02-18T02:47:38.300Z,51.72
2023-02-18T02:50:21.407Z,52.12
2023-02-18T02:52:52.358Z,52.35
2023-02-18T02:55:18.874Z,52.45
2023-02-18T02:57:49.093Z,52.64
2023-02-18T03:00:18.483Z,52.54
2023-02-18T03:02:55.837Z,52.55
2023-02-18T03:05:43.407Z,52.21
2023-02-18T03:08:12.961Z,52.42
2023-02-18T03:10:59.652Z,52.45
2023-02-18T03:14:04.932Z,52.27
2023-02-18T03:16:50.967Z,52.19
2023-02-18T03:19:28.992Z,52.61
2023-02-18T03:22:05.306Z,52.65
2023-02-18T03:24:41.826Z,52.73
2023-02-18T03:27:27.742Z,52.83
2023-02-18T03:30:02.573Z,53.19
2023-02-18T03:32:31.056Z,53.54
2023-02-18T03:35:10.546Z,53.49
2023-02-18T03:37:43.603Z,53.76
2023-02-18T03:40:11.425Z,54.22
2023-02-18T03:42:37.965Z,54.26
2023-02-18T03:45:04.711Z,54.42
2023-02-18T03:47:31.096Z,53.10
2023-02-18T03:49:57.686Z,54.49
2023-02-18T03:52:24.161Z,55.01
2023-02-18T03:54:51.018Z,54.80
2023-02-18T03:57:17.462Z,54.82
2023-02-18T03:59:44.364Z,55.13
2023-02-18T04:02:10.821Z,55.30
2023-02-18T04:04:37.403Z,55.30
2023-02-18T04:07:03.883Z,55.51
2023-02-18T04:09:30.337Z,55.33
2023-02-18T04:11:56.786Z,55.41
2023-02-18T04:14:23.240Z,55.53
2023-02-18T04:16:49.763Z,55.55
2023-02-18T04:19:16.196Z,55.78
2023-02-18T04:21:42.709Z,56.35
2023-02-18T04:24:09.134Z,56.45
2023-02-18T04:26:35.637Z,56.55
2023-02-18T04:29:02.823Z,56.61
2023-02-18T04:31:29.419Z,56.87
2023-02-18T04:33:55.979Z,56.58
2023-02-18T04:36:22.446Z,56.94
2023-02-18T04:38:48.890Z,57.10
2023-02-18T04:41:15.431Z,56.86
2023-02-18T04:43:41.897Z,57.14
2023-02-18T04:46:08.752Z,57.05
2023-02-18T04:48:35.592Z,57.46
2023-02-18T04:51:02.962Z,57.63
2023-02-18T04:53:29.439Z,57.48
2023-02-18T04:55:56.046Z,58.08
2023-02-18T04:58:22.719Z,58.18
2023-02-18T05:00:49.114Z,55.28
2023-02-18T05:03:15.978Z,57.90
2023-02-18T05:05:42.454Z,58.05
2023-02-18T05:08:08.999Z,58.28
2023-02-18T05:10:35.521Z,58.15
2023-02-18T05:13:02.677Z,58.32
2023-02-18T05:15:29.177Z,58.62
2023-02-18T05:17:55.686Z,58.26
2023-02-18T05:20:29.366Z,57.99
2023-02-18T05:22:56.098Z,58.74
2023-02-18T05:25:22.519Z,55.62
2023-02-18T05:27:48.959Z,58.37
2023-02-18T05:30:15.543Z,58.52
2023-02-18T05:32:42.067Z,58.87
2023-02-18T05:35:08.696Z,59.07
2023-02-18T05:37:35.380Z,59.12
2023-02-18T05:40:01.974Z,59.07
2023-02-18T05:42:28.463Z,59.02
2023-02-18T05:44:54.902Z,59.41
2023-02-18T05:47:21.402Z,59.22
2023-02-18T05:49:47.843Z,59.47
2023-02-18T05:52:14.421Z,59.41
2023-02-18T05:54:40.877Z,59.55
2023-02-18T05:57:07.449Z,60.08
2023-02-18T05:59:34.072Z,60.08
2023-02-18T06:02:00.837Z,60.07
2023-02-18T06:04:27.212Z,57.15
2023-02-18T06:06:53.715Z,60.14
2023-02-18T06:09:20.275Z,59.88
2023-02-18T06:11:46.790Z,60.20
2023-02-18T06:14:13.407Z,60.44
2023-02-18T06:16:39.911Z,60.57
2023-02-18T06:19:06.399Z,60.34
2023-02-18T06:21:33.012Z,60.55
2023-02-18T06:23:59.519Z,60.54
2023-02-18T06:26:26.941Z,60.35
2023-02-18T06:28:53.454Z,60.29
2023-02-18T06:31:19.999Z,60.47
2023-02-18T06:33:46.792Z,60.23
2023-02-18T06:36:13.773Z,57.48
2023-02-18T06:38:42.291Z,60.31
2023-02-18T06:41:09.272Z,60.68
2023-02-18T06:43:35.911Z,60.98
2023-02-18T06:46:03.335Z,61.06
2023-02-18T06:48:30.035Z,61.14
2023-02-18T06:50:56.511Z,57.86
2023-02-18T06:53:23.147Z,60.56
2023-02-18T06:55:49.951Z,60.68
2023-02-18T06:58:16.861Z,58.26
2023-02-18T07:00:43.971Z,60.63
2023-02-18T07:03:13.597Z,61.32
2023-02-18T07:05:40.196Z,61.63
2023-02-18T07:08:06.658Z,61.54
2023-02-18T07:10:33.197Z,61.73
2023-02-18T07:12:59.692Z,61.50
2023-02-18T07:15:27.944Z,61.51
2023-02-18T07:17:54.716Z,61.89
2023-02-18T07:20:21.461Z,58.69
2023-02-18T07:22:48.610Z,61.47
2023-02-18T07:25:15.498Z,62.00
2023-02-18T07:27:41.923Z,62.00
2023-02-18T07:30:08.952Z,62.55
2023-02-18T07:32:35.806Z,63.06
2023-02-18T07:35:03.632Z,63.56
2023-02-18T07:37:30.207Z,64.13
2023-02-18T07:39:56.666Z,64.66
2023-02-18T07:42:23.775Z,64.42
2023-02-18T07:44:50.627Z,64.80
2023-02-18T07:47:19.729Z,64.73
2023-02-18T07:49:47.035Z,64.94
2023-02-18T07:52:15.042Z,64.80
2023-02-18T07:54:41.821Z,64.43
2023-02-18T07:57:08.295Z,63.86
2023-02-18T07:59:34.802Z,64.06
2023-02-18T08:02:01.274Z,64.17
2023-02-18T08:04:27.785Z,64.08
2023-02-18T08:06:54.267Z,64.11
2023-02-18T08:09:20.754Z,63.83
2023-02-18T08:11:47.218Z,63.35
2023-02-18T08:14:13.686Z,63.04
2023-02-18T08:16:40.489Z,62.76
2023-02-18T08:19:08.008Z,62.42
2023-02-18T08:21:34.722Z,62.90
2023-02-18T08:24:01.373Z,62.25
2023-02-18T08:26:27.861Z,62.57
2023-02-18T08:28:54.347Z,62.76
2023-02-18T08:31:27.024Z,62.48
2023-02-18T08:33:54.701Z,63.04
2023-02-18T08:36:22.462Z,62.86
2023-02-18T08:38:49.397Z,62.55
2023-02-18T08:41:16.523Z,62.69
2023-02-18T08:43:43.166Z,62.42
2023-02-18T08:46:12.729Z,61.41
2023-02-18T08:48:42.832Z,62.11
2023-02-18T08:51:13.897Z,61.79
2023-02-18T08:53:40.607Z,61.99
2023-02-18T08:56:08.456Z,61.61
2023-02-18T08:58:37.274Z,60.83
2023-02-18T09:01:06.807Z,61.70
2023-02-18T09:03:34.388Z,61.77
2023-02-18T09:06:01.425Z,61.69
2023-02-18T09:08:28.478Z,61.72
2023-02-18T09:11:00.104Z,61.97
2023-02-18T09:13:27.202Z,61.53
2023-02-18T09:16:02.315Z,61.58
2023-02-18T09:18:29.028Z,61.74
2023-02-18T09:20:56.609Z,61.18
2023-02-18T09:23:23.412Z,61.63
2023-02-18T09:25:49.832Z,61.01
2023-02-18T09:28:16.283Z,60.94
2023-02-18T09:30:42.787Z,61.27
2023-02-18T09:33:09.284Z,61.51
2023-02-18T09:35:39.740Z,60.95
2023-02-18T09:38:07.273Z,61.66
2023-02-18T09:40:35.446Z,61.50
2023-02-18T09:43:02.006Z,61.24
2023-02-18T09:45:29.174Z,61.29
2023-02-18T09:47:56.303Z,61.79
2023-02-18T09:50:28.775Z,61.73
2023-02-18T09:52:58.379Z,61.04
2023-02-18T09:55:30.678Z,61.41
2023-02-18T09:58:07.662Z,60.96
2023-02-18T10:00:41.282Z,60.90
2023-02-18T10:03:25.276Z,60.56
2023-02-18T10:06:02.792Z,60.67
2023-02-18T10:08:35.390Z,60.36
2023-02-18T10:11:02.350Z,60.15
2023-02-18T10:13:31.257Z,59.92
2023-02-18T10:15:57.971Z,59.99
2023-02-18T10:18:35.581Z,60.10
2023-02-18T10:21:18.057Z,59.64
2023-02-18T10:23:56.564Z,59.24
2023-02-18T10:26:23.228Z,59.88
2023-02-18T10:28:49.695Z,58.97
2023-02-18T10:31:25.708Z,59.34
2023-02-18T10:34:07.533Z,58.85
2023-02-18T10:36:46.407Z,58.72
2023-02-18T10:39:45.938Z,58.39
2023-02-18T10:42:37.500Z,58.65
2023-02-18T10:45:09.523Z,57.82
2023-02-18T10:47:40.577Z,57.84
2023-02-18T10:50:35.457Z,57.66
2023-02-18T10:53:13.687Z,57.19
2023-02-18T10:55:43.695Z,57.57
2023-02-18T10:58:43.096Z,57.69
2023-02-18T11:01:19.651Z,57.54
2023-02-18T11:03:51.474Z,57.70
2023-02-18T11:06:27.047Z,57.93
2023-02-18T11:08:55.072Z,58.14
2023-02-18T11:11:28.954Z,57.33
2023-02-18T11:13:58.334Z,57.34
2023-02-18T11:16:37.605Z,57.49
2023-02-18T11:19:04.569Z,57.26
2023-02-18T11:21:36.527Z,57.35
2023-02-18T11:24:15.985Z,57.45
2023-02-18T11:26:46.305Z,57.06
2023-02-18T11:29:26.522Z,57.10
2023-02-18T11:31:56.540Z,56.99
2023-02-18T11:34:28.626Z,56.83
2023-02-18T11:36:56.182Z,57.10
2023-02-18T11:39:28.227Z,57.29
2023-02-18T11:41:57.721Z,57.17
2023-02-18T11:44:30.223Z,56.85
2023-02-18T11:46:56.692Z,56.85
2023-02-18T11:49:24.769Z,57.11
2023-02-18T11:51:51.676Z,57.09
2023-02-18T11:54:25.763Z,57.19
2023-02-18T11:57:02.745Z,57.12
2023-02-18T11:59:33.248Z,57.22
2023-02-18T12:02:11.687Z,56.78
2023-02-18T12:04:44.220Z,57.11
2023-02-18T12:07:30.250Z,57.08
2023-02-18T12:10:00.791Z,57.18
2023-02-18T12:12:47.526Z,57.08
2023-02-18T12:15:19.970Z,57.55
2023-02-18T12:18:24.919Z,57.03
2023-02-18T12:21:23.216Z,57.35
2023-02-18T12:23:52.673Z,56.42
2023-02-18T12:26:28.813Z,57.61
2023-02-18T12:29:17.158Z,57.57
2023-02-18T12:32:21.505Z,57.33
2023-02-18T12:35:08.426Z,57.58
2023-02-18T12:38:07.778Z,57.10
2023-02-18T12:41:02.619Z,57.66
2023-02-18T12:43:35.037Z,57.56
2023-02-18T12:46:23.407Z,57.99
2023-02-18T12:49:03.603Z,58.34
2023-02-18T12:51:55.633Z,57.48
2023-02-18T12:54:37.008Z,58.30
2023-02-18T12:57:15.342Z,58.54
2023-02-18T13:00:17.048Z,58.25
2023-02-18T13:03:11.382Z,58.46
2023-02-18T13:06:11.201Z,58.14
2023-02-18T13:08:59.285Z,58.75
2023-02-18T13:11:35.909Z,59.33
2023-02-18T13:14:24.526Z,58.59
2023-02-18T13:16:57.261Z,59.79
2023-02-18T13:19:29.060Z,60.21
2023-02-18T13:22:17.131Z,60.20
2023-02-18T13:24:46.974Z,60.34
2023-02-18T13:27:13.349Z,60.33
2023-02-18T13:29:56.382Z,59.98
2023-02-18T13:32:30.906Z,59.78
2023-02-18T13:35:19.754Z,59.50
2023-02-18T13:37:55.163Z,60.10
2023-02-18T13:40:25.500Z,59.83
2023-02-18T13:42:52.853Z,59.95
2023-02-18T13:45:28.706Z,60.15
2023-02-18T13:47:56.866Z,60.49
2023-02-18T13:50:23.377Z,60.74
2023-02-18T13:52:51.444Z,60.49
2023-02-18T13:55:23.902Z,60.32
2023-02-18T13:57:54.636Z,60.57
2023-02-18T14:00:25.846Z,60.31
2023-02-18T14:03:02.381Z,60.79
2023-02-18T14:05:40.269Z,60.24
2023-02-18T14:08:12.347Z,60.09
2023-02-18T14:10:39.136Z,60.48
2023-02-18T14:13:25.392Z,60.53
2023-02-18T14:16:01.271Z,60.55
2023-02-18T14:18:36.874Z,60.12
2023-02-18T14:21:24.926Z,59.91
2023-02-18T14:23:59.673Z,58.68
2023-02-18T14:26:35.284Z,59.99
2023-02-18T14:29:07.286Z,60.24
2023-02-18T14:31:45.262Z,60.10
2023-02-18T14:34:34.394Z,59.96
2023-02-18T14:37:27.314Z,60.19
2023-02-18T14:40:17.079Z,60.48
2023-02-18T14:43:07.493Z,60.46
2023-02-18T14:45:55.439Z,60.46
2023-02-18T14:48:42.744Z,60.63
2023-02-18T14:51:10.658Z,61.10
2023-02-18T14:53:44.490Z,60.98
2023-02-18T14:56:14.807Z,61.37
2023-02-18T14:58:53.954Z,61.03
2023-02-18T15:01:23.316Z,61.07
2023-02-18T15:03:51.819Z,61.40
2023-02-18T15:06:37.069Z,61.22
2023-02-18T15:09:13.157Z,60.83
2023-02-18T15:11:43.574Z,61.48
2023-02-18T15:14:38.479Z,60.93
2023-02-18T15:17:08.184Z,61.38
2023-02-18T15:19:41.164Z,61.02
2023-02-18T15:22:17.160Z,61.10
2023-02-18T15:24:44.171Z,61.19
2023-02-18T15:27:21.882Z,60.63
2023-02-18T15:29:56.601Z,61.33
2023-02-18T15:32:28.858Z,60.94
2023-02-18T15:35:03.528Z,61.39
2023-02-18T15:37:31.228Z,61.35
2023-02-18T15:39:58.175Z,61.75
2023-02-18T15:42:30.586Z,61.28
2023-02-18T15:45:19.688Z,61.18
2023-02-18T15:47:54.372Z,61.44
2023-02-18T15:50:43.041Z,61.22
2023-02-18T15:53:15.855Z,60.84
2023-02-18T15:55:46.313Z,61.10
2023-02-18T15:58:19.012Z,60.97
2023-02-18T16:01:00.239Z,60.42
2023-02-18T16:03:30.281Z,60.85
2023-02-18T16:06:22.639Z,60.10
2023-02-18T16:08:57.818Z,60.34
2023-02-18T16:11:27.778Z,60.51
2023-02-18T16:13:54.298Z,60.46
2023-02-18T16:16:44.297Z,60.39
2023-02-18T16:19:24.669Z,60.48
2023-02-18T16:21:51.126Z,60.15
2023-02-18T16:24:30.294Z,60.28
2023-02-18T16:26:57.975Z,60.19
2023-02-18T16:29:34.036Z,59.88
2023-02-18T16:32:00.743Z,59.97
2023-02-18T16:34:27.885Z,59.26
2023-02-18T16:37:13.482Z,59.66
2023-02-18T16:39:40.195Z,59.51
2023-02-18T16:42:11.237Z,58.84
2023-02-18T16:44:38.309Z,59.20
2023-02-18T16:47:05.200Z,59.25
2023-02-18T16:49:32.273Z,59.57
2023-02-18T16:52:01.396Z,59.15
2023-02-18T16:54:29.115Z,59.18
2023-02-18T16:56:55.616Z,59.17
2023-02-18T16:59:22.070Z,59.04
2023-02-18T17:01:48.682Z,59.16
2023-02-18T17:04:16.196Z,58.51
2023-02-18T17:06:45.119Z,58.74
2023-02-18T17:09:21.297Z,58.99
2023-02-18T17:11:50.404Z,58.72
2023-02-18T17:14:19.140Z,58.96
2023-02-18T17:16:51.402Z,59.14
2023-02-18T17:19:17.901Z,58.73
2023-02-18T17:21:46.016Z,58.74
2023-02-18T17:24:16.023Z,58.59
2023-02-18T17:26:42.885Z,58.68
2023-02-18T17:29:09.575Z,58.40
2023-02-18T17:31:37.969Z,58.16
2023-02-18T17:34:08.072Z,58.48
2023-02-18T17:36:34.553Z,58.43
2023-02-18T17:39:02.753Z,58.08
2023-02-18T17:41:29.433Z,58.15
2023-02-18T17:43:55.894Z,57.94
2023-02-18T17:46:22.489Z,58.23
2023-02-18T17:48:48.952Z,57.57
2023-02-18T17:51:24.787Z,58.07
2023-02-18T17:53:51.500Z,57.81
2023-02-18T17:56:17.884Z,57.30
2023-02-18T17:58:46.452Z,57.63
2023-02-18T18:01:12.935Z,57.72
2023-02-18T18:03:39.438Z,57.93
2023-02-18T18:06:14.343Z,57.95
2023-02-18T18:08:40.784Z,58.35
2023-02-18T18:11:12.949Z,58.36
2023-02-18T18:13:39.421Z,58.18
2023-02-18T18:16:06.122Z,58.40
2023-02-18T18:18:32.507Z,57.78
2023-02-18T18:21:01.034Z,58.61
2023-02-18T18:23:29.338Z,58.76
2023-02-18T18:25:57.781Z,59.04
2023-02-18T18:28:26.633Z,59.00
2023-02-18T18:30:54.879Z,59.31
2023-02-18T18:33:32.581Z,58.76
2023-02-18T18:36:00.466Z,58.95
2023-02-18T18:38:30.029Z,59.47
2023-02-18T18:40:57.035Z,59.24
2023-02-18T18:43:23.443Z,58.98
2023-02-18T18:45:51.024Z,58.80
2023-02-18T18:48:18.407Z,58.67
2023-02-18T18:50:44.921Z,58.68
2023-02-18T18:53:33.191Z,58.17
2023-02-18T18:56:02.567Z,58.04
2023-02-18T18:58:29.050Z,58.01
2023-02-18T19:01:01.687Z,58.14
2023-02-18T19:03:29.608Z,57.94
2023-02-18T19:05:56.824Z,57.89
2023-02-18T19:08:23.971Z,57.92
2023-02-18T19:10:53.601Z,57.86
2023-02-18T19:13:22.892Z,58.30
2023-02-18T19:15:50.922Z,58.29
2023-02-18T19:18:20.244Z,57.68
2023-02-18T19:20:48.607Z,57.59
2023-02-18T19:23:15.126Z,58.14
2023-02-18T19:25:42.341Z,57.85
2023-02-18T19:28:13.688Z,58.09
2023-02-18T19:30:44.285Z,58.11
2023-02-18T19:33:13.466Z,57.89
2023-02-18T19:35:41.401Z,58.14
2023-02-18T19:38:13.655Z,58.23
2023-02-18T19:40:40.881Z,58.00
2023-02-18T19:43:07.815Z,58.32
2023-02-18T19:45:35.322Z,58.13
2023-02-18T19:48:01.860Z,58.12
2023-02-18T19:50:31.199Z,58.29
2023-02-18T19:52:59.008Z,58.37
2023-02-18T19:55:25.697Z,57.94
2023-02-18T19:57:52.103Z,57.26
2023-02-18T20:00:22.323Z,57.82
2023-02-18T20:02:49.616Z,57.85
